Time;durP1;ratioP1;P1;durP2;ratioP2;P2;SDS_P1;SDS_P2;PMS_P1;PMS_P2;Temp;Humidity;BMP_temperature;BMP_pressure;BME280_temperature;BME280_humidity;BME280_pressure;Samples;Min_cycle;Max_cycle;Signal;HPM_P1;HPM_P2
2022/06/10 00:01:17;;;;;;;6.40;2.20;;;11.80;99.90;;;;;;5090499;28;20381;-88
2022/06/10 00:03:45;;;;;;;2.30;0.93;;;12.00;99.90;;;;;;5089827;28;20857;-87
2022/06/10 00:06:14;;;;;;;0.80;0.60;;;12.20;99.60;;;;;;5090204;28;20380;-88
2022/06/10 00:08:45;;;;;;;1.50;0.77;;;12.50;96.10;;;;;;5090496;28;20364;-87
2022/06/10 00:11:12;;;;;;;0.63;0.47;;;12.70;93.80;;;;;;5090203;28;20455;-88
2022/06/10 00:13:43;;;;;;;0.80;0.55;;;12.90;93.10;;;;;;5091418;28;20709;-88
2022/06/10 00:16:11;;;;;;;1.92;0.63;;;13.10;92.40;;;;;;5090085;28;20397;-86
2022/06/10 00:18:40;;;;;;;5.00;2.30;;;13.20;92.50;;;;;;5089901;28;20391;-87
2022/06/10 00:21:10;;;;;;;1.92;1.05;;;13.30;94.60;;;;;;5090041;28;20473;-86
2022/06/10 00:23:37;;;;;;;1.05;0.60;;;13.30;93.80;;;;;;5089700;28;20426;-88
2022/06/10 00:26:05;;;;;;;0.70;0.50;;;13.40;91.90;;;;;;5071802;28;20380;-83
2022/06/10 00:28:33;;;;;;;0.65;0.50;;;13.50;91.30;;;;;;5092064;28;20418;-87
2022/06/10 00:31:01;;;;;;;0.85;0.40;;;13.60;89.10;;;;;;5100201;28;20436;-87
2022/06/10 00:33:29;;;;;;;0.67;0.47;;;13.60;89.20;;;;;;5098525;28;20368;-86
2022/06/10 00:35:56;;;;;;;1.80;0.60;;;13.80;89.20;;;;;;5097015;28;20412;-84
2022/06/10 00:38:23;;;;;;;5.95;1.80;;;13.80;88.00;;;;;;5096899;28;20364;-83
2022/06/10 00:40:54;;;;;;;2.40;0.80;;;13.90;90.40;;;;;;5097061;28;20368;-88
2022/06/10 00:43:25;;;;;;;0.90;0.65;;;14.00;87.00;;;;;;5094335;28;20366;-82
2022/06/10 00:46:20;;;;;;;1.80;0.70;;;14.00;87.60;;;;;;5091904;28;20380;-84
2022/06/10 00:48:57;;;;;;;1.95;0.90;;;14.20;89.60;;;;;;5090867;28;20705;-86
2022/06/10 00:51:47;;;;;;;2.78;0.90;;;14.20;88.60;;;;;;5090864;28;20721;-83
2022/06/10 00:54:31;;;;;;;3.30;1.17;;;14.20;88.30;;;;;;5090624;28;20361;-82
2022/06/10 00:57:05;;;;;;;4.63;1.27;;;14.20;89.40;;;;;;5089692;28;20445;-84
2022/06/10 00:59:49;;;;;;;2.45;1.00;;;14.30;89.10;;;;;;5089765;28;20447;-87
2022/06/10 01:02:20;;;;;;;2.15;0.90;;;14.30;87.20;;;;;;5090289;28;20399;-85
2022/06/10 01:04:47;;;;;;;2.45;1.10;;;14.60;87.70;;;;;;5089812;28;20360;-86
2022/06/10 01:07:18;;;;;;;3.70;1.10;;;14.70;87.60;;;;;;5089918;28;20818;-84
2022/06/10 01:09:47;;;;;;;4.68;1.60;;;14.70;87.80;;;;;;5089584;28;20364;-87
2022/06/10 01:12:45;;;;;;;3.83;1.10;;;14.70;88.60;;;;;;5089743;28;20395;-86
2022/06/10 01:15:39;;;;;;;2.33;0.93;;;14.80;86.90;;;;;;5070811;28;20546;-83
2022/06/10 01:18:45;;;;;;;2.30;0.90;;;14.90;88.00;;;;;;4987821;28;20423;-84
2022/06/10 01:21:45;;;;;;;2.00;0.70;;;15.20;83.80;;;;;;4985407;28;20451;-85
2022/06/10 01:24:48;;;;;;;2.08;0.70;;;15.20;81.80;;;;;;4971189;28;20431;-86
2022/06/10 01:30:37;;;;;;;2.10;0.40;;;15.40;78.50;;;;;;4988005;28;20388;-84
2022/06/10 01:33:45;;;;;;;0.60;0.40;;;15.40;78.20;;;;;;4988186;28;20520;-82
2022/06/10 01:36:26;;;;;;;0.40;0.30;;;15.70;76.90;;;;;;4993767;28;20407;-83
2022/06/10 01:39:05;;;;;;;0.82;0.30;;;15.70;74.00;;;;;;5006135;28;21333;-83
2022/06/10 01:41:47;;;;;;;1.42;0.40;;;15.60;74.90;;;;;;5007135;28;20383;-84
2022/06/10 01:44:38;;;;;;;1.42;0.43;;;15.70;74.00;;;;;;5007332;28;20911;-84
2022/06/10 01:47:34;;;;;;;1.40;0.30;;;15.70;75.40;;;;;;5007285;28;20469;-84
2022/06/10 01:50:04;;;;;;;1.20;0.40;;;15.90;73.10;;;;;;5006987;28;20371;-84
2022/06/10 01:52:56;;;;;;;0.40;0.30;;;15.90;74.90;;;;;;5006996;28;20414;-86
2022/06/10 01:55:52;;;;;;;0.20;0.20;;;15.90;72.80;;;;;;5063928;28;20388;-85
2022/06/10 01:58:38;;;;;;;0.90;0.30;;;15.90;70.70;;;;;;5089596;28;20376;-84
2022/06/10 02:01:21;;;;;;;0.40;0.20;;;15.70;71.70;;;;;;5088660;28;20368;-86
2022/06/10 02:04:01;;;;;;;1.88;0.20;;;15.80;72.70;;;;;;5090337;28;20392;-87
2022/06/10 02:06:52;;;;;;;1.10;0.30;;;16.00;70.80;;;;;;5089536;28;20371;-83
2022/06/10 02:09:34;;;;;;;0.40;0.30;;;16.00;71.00;;;;;;5088319;28;20380;-86
2022/06/10 02:12:13;;;;;;;0.87;0.30;;;16.10;69.20;;;;;;5088561;28;20401;-87
2022/06/10 02:14:48;;;;;;;0.90;0.30;;;16.20;67.00;;;;;;5088935;28;20915;-84
2022/06/10 02:17:16;;;;;;;1.57;0.20;;;16.30;68.50;;;;;;5088947;28;20455;-84
2022/06/10 02:19:49;;;;;;;0.25;0.20;;;16.30;67.10;;;;;;5089107;28;20393;-87
2022/06/10 02:22:28;;;;;;;0.50;0.22;;;16.40;66.00;;;;;;5088667;28;20365;-85
2022/06/10 02:25:03;;;;;;;0.20;0.20;;;16.40;66.30;;;;;;5088674;28;20475;-84
2022/06/10 02:27:35;;;;;;;0.60;0.30;;;16.40;64.40;;;;;;5089993;28;20412;-82
2022/06/10 02:30:15;;;;;;;1.08;0.20;;;16.30;66.80;;;;;;5092768;28;20453;-88
2022/06/10 02:32:43;;;;;;;0.50;0.30;;;16.40;66.50;;;;;;5092212;28;20376;-88
2022/06/10 02:35:13;;;;;;;0.25;0.20;;;16.50;66.70;;;;;;5091803;28;20396;-87
2022/06/10 02:38:13;;;;;;;0.40;0.30;;;16.60;64.30;;;;;;5092120;28;20381;-87
2022/06/10 02:40:58;;;;;;;0.20;0.20;;;16.60;64.40;;;;;;4990596;28;20402;-84
2022/06/10 02:43:41;;;;;;;1.92;0.40;;;16.70;64.80;;;;;;4990388;28;20381;-87
2022/06/10 02:46:20;;;;;;;0.33;0.30;;;16.70;64.60;;;;;;4990276;28;20461;-84
2022/06/10 02:49:00;;;;;;;0.47;0.30;;;16.80;65.30;;;;;;4990020;28;20444;-87
2022/06/10 02:51:29;;;;;;;1.52;0.30;;;16.70;63.40;;;;;;4990105;28;20427;-86
2022/06/10 02:53:59;;;;;;;1.05;0.20;;;16.70;63.50;;;;;;4990114;28;20877;-83
2022/06/10 02:56:29;;;;;;;0.80;0.20;;;16.80;64.10;;;;;;4989891;28;20417;-83
2022/06/10 03:02:17;;;;;;;1.40;0.27;;;16.80;64.00;;;;;;4989964;28;20836;-85
2022/06/10 03:05:01;;;;;;;0.70;0.22;;;16.90;64.10;;;;;;4990906;28;20777;-85
2022/06/10 03:07:39;;;;;;;0.93;0.20;;;17.00;63.60;;;;;;4990154;28;20452;-86
2022/06/10 03:10:36;;;;;;;0.20;0.20;;;17.00;63.00;;;;;;4989638;28;20389;-87
2022/06/10 03:13:21;;;;;;;0.20;0.15;;;17.00;62.60;;;;;;4989453;28;20468;-87
2022/06/10 03:16:17;;;;;;;1.13;0.20;;;17.00;62.90;;;;;;4991344;28;20409;-84
2022/06/10 03:18:53;;;;;;;0.20;0.20;;;17.10;61.90;;;;;;5091582;28;20361;-85
2022/06/10 03:21:36;;;;;;;0.13;0.10;;;17.00;62.90;;;;;;5091084;28;20448;-83
2022/06/10 03:24:14;;;;;;;0.15;0.15;;;17.00;63.00;;;;;;5091192;28;20770;-84
2022/06/10 03:26:58;;;;;;;0.98;0.20;;;16.90;62.30;;;;;;5090879;28;20736;-85
2022/06/10 03:29:25;;;;;;;1.38;0.20;;;16.90;62.00;;;;;;5091341;28;20867;-83
2022/06/10 03:32:01;;;;;;;0.10;0.10;;;17.00;62.40;;;;;;5090922;28;20372;-82
2022/06/10 03:34:48;;;;;;;0.93;0.10;;;17.00;62.30;;;;;;5090581;28;20401;-82
2022/06/10 03:37:18;;;;;;;0.90;0.20;;;17.00;62.50;;;;;;5090558;28;20481;-83
2022/06/10 03:39:53;;;;;;;0.50;0.20;;;17.10;62.40;;;;;;5090508;28;20952;-83
2022/06/10 03:42:22;;;;;;;0.40;0.20;;;17.10;62.10;;;;;;5090801;28;20736;-84
2022/06/10 03:44:53;;;;;;;1.25;0.30;;;17.10;63.40;;;;;;5090896;28;20447;-84
2022/06/10 03:47:30;;;;;;;0.80;0.20;;;17.20;62.60;;;;;;5088219;28;20864;-83
2022/06/10 03:50:06;;;;;;;0.40;0.10;;;17.30;61.20;;;;;;5090806;28;20407;-82
2022/06/10 03:52:37;;;;;;;0.70;0.20;;;17.20;60.80;;;;;;5090559;28;20368;-84
2022/06/10 03:55:06;;;;;;;1.10;0.20;;;17.20;61.50;;;;;;5091051;28;20388;-83
2022/06/10 03:57:34;;;;;;;0.28;0.20;;;17.10;61.30;;;;;;5090657;28;20385;-85
2022/06/10 04:00:03;;;;;;;0.10;0.10;;;17.10;62.00;;;;;;5090565;28;20716;-87
2022/06/10 04:02:40;;;;;;;0.20;0.20;;;17.10;60.90;;;;;;5038849;28;20429;-86
2022/06/10 04:05:08;;;;;;;1.20;0.30;;;17.20;60.90;;;;;;5090313;28;20360;-88
2022/06/10 04:07:35;;;;;;;0.22;0.20;;;17.10;61.60;;;;;;5090324;28;20741;-82
2022/06/10 04:10:03;;;;;;;0.30;0.13;;;17.00;62.20;;;;;;5090334;28;20464;-83
2022/06/10 04:12:30;;;;;;;0.20;0.20;;;17.10;62.60;;;;;;5090262;28;20402;-83
2022/06/10 04:14:57;;;;;;;0.20;0.20;;;17.10;62.80;;;;;;5090065;28;20451;-84
2022/06/10 04:17:24;;;;;;;0.10;0.10;;;17.10;63.50;;;;;;5090044;28;20432;-86
2022/06/10 04:19:52;;;;;;;0.40;0.20;;;17.10;61.30;;;;;;5089988;28;20441;-86
2022/06/10 04:22:19;;;;;;;4.47;3.00;;;17.10;61.60;;;;;;5089923;28;20869;-86
2022/06/10 04:24:46;;;;;;;0.28;0.20;;;17.00;62.00;;;;;;5090153;28;20376;-86
2022/06/10 04:27:13;;;;;;;0.80;0.30;;;17.00;61.10;;;;;;5089727;28;20459;-85
2022/06/10 04:29:40;;;;;;;1.13;1.02;;;17.00;61.20;;;;;;5089898;28;20377;-87
2022/06/10 04:32:08;;;;;;;1.77;0.32;;;16.90;62.20;;;;;;5089684;28;20868;-85
2022/06/10 04:34:36;;;;;;;0.43;0.20;;;16.90;61.50;;;;;;5089427;28;20376;-89
2022/06/10 04:37:05;;;;;;;0.90;0.20;;;16.90;62.50;;;;;;5090090;28;20408;-86
2022/06/10 04:39:32;;;;;;;1.40;0.30;;;16.80;62.40;;;;;;5090651;28;20397;-89
2022/06/10 04:41:59;;;;;;;1.73;0.30;;;16.80;62.90;;;;;;5090044;28;20872;-86
2022/06/10 04:44:26;;;;;;;1.00;0.30;;;16.80;61.80;;;;;;5089464;28;20368;-84
2022/06/10 04:46:53;;;;;;;1.83;0.43;;;17.00;62.90;;;;;;5089389;28;20739;-89
2022/06/10 04:49:20;;;;;;;0.20;0.20;;;17.10;62.30;;;;;;5088996;28;20372;-87
2022/06/10 04:51:47;;;;;;;1.75;0.22;;;17.30;60.70;;;;;;5089710;28;20380;-83
2022/06/10 04:54:15;;;;;;;1.40;0.40;;;17.70;60.50;;;;;;5089352;28;20376;-86
2022/06/10 04:56:42;;;;;;;0.30;0.10;;;17.70;59.90;;;;;;5089408;28;20440;-84
2022/06/10 04:59:09;;;;;;;1.40;0.30;;;17.60;60.00;;;;;;5089219;28;20891;-84
2022/06/10 05:01:37;;;;;;;1.30;0.30;;;17.30;60.70;;;;;;5070839;28;20781;-87
2022/06/10 05:04:04;;;;;;;0.90;0.30;;;17.00;61.40;;;;;;5089302;28;20463;-88
2022/06/10 05:06:31;;;;;;;0.40;0.40;;;16.80;62.70;;;;;;5089476;28;20863;-87
2022/06/10 05:08:58;;;;;;;0.22;0.20;;;16.80;62.70;;;;;;5089283;28;20868;-83
2022/06/10 05:11:25;;;;;;;0.70;0.20;;;16.70;62.80;;;;;;5089245;28;20408;-86
2022/06/10 05:13:53;;;;;;;0.40;0.20;;;16.70;64.00;;;;;;5070808;28;20740;-83
2022/06/10 05:16:20;;;;;;;0.77;0.30;;;16.70;64.30;;;;;;5088819;28;20403;-82
2022/06/10 05:18:47;;;;;;;0.65;0.30;;;16.70;62.40;;;;;;5089037;28;20858;-87
2022/06/10 05:21:14;;;;;;;0.28;0.20;;;16.80;62.20;;;;;;5089058;28;20364;-84
2022/06/10 05:23:45;;;;;;;0.38;0.20;;;16.70;62.90;;;;;;5088987;28;20380;-87
2022/06/10 05:26:14;;;;;;;0.38;0.28;;;16.60;62.70;;;;;;5088721;28;20886;-84
2022/06/10 05:28:42;;;;;;;0.40;0.10;;;16.50;63.00;;;;;;5088730;28;20377;-85
2022/06/10 05:31:09;;;;;;;0.40;0.20;;;16.40;62.90;;;;;;5088888;28;20721;-83
2022/06/10 05:36:22;;;;;;;1.00;0.20;;;16.20;62.80;;;;;;5088458;28;20426;-86
2022/06/10 05:38:49;;;;;;;0.67;0.20;;;16.10;61.60;;;;;;5089203;28;20452;-83
2022/06/10 05:44:02;;;;;;;0.80;0.28;;;15.90;61.80;;;;;;5089000;28;20406;-85
2022/06/10 05:46:29;;;;;;;1.98;0.20;;;15.90;62.80;;;;;;5088577;28;20863;-85
2022/06/10 05:48:56;;;;;;;1.30;0.20;;;15.70;62.20;;;;;;5088547;28;20380;-85
2022/06/10 05:51:23;;;;;;;0.60;0.30;;;15.70;62.10;;;;;;5088533;28;20464;-84
2022/06/10 05:53:51;;;;;;;1.00;0.30;;;15.80;62.30;;;;;;5088673;28;20372;-83
2022/06/10 05:56:18;;;;;;;1.23;0.30;;;15.60;62.20;;;;;;5088716;28;20427;-83
2022/06/10 05:58:45;;;;;;;2.80;0.30;;;15.50;62.80;;;;;;5088353;28;20388;-84
2022/06/10 06:01:12;;;;;;;1.17;0.30;;;15.40;63.60;;;;;;5088470;28;20459;-83
2022/06/10 06:03:39;;;;;;;0.47;0.32;;;15.30;64.70;;;;;;5092349;28;20369;-86
2022/06/10 06:06:08;;;;;;;1.02;0.30;;;15.30;64.80;;;;;;5074525;28;20433;-83
2022/06/10 06:08:36;;;;;;;1.88;0.40;;;15.20;64.80;;;;;;5092448;28;20387;-84
2022/06/10 06:11:03;;;;;;;1.07;0.80;;;15.10;65.00;;;;;;5092604;28;20387;-90
2022/06/10 06:13:30;;;;;;;1.00;0.50;;;15.10;65.20;;;;;;5092640;28;20380;-83
2022/06/10 06:15:58;;;;;;;2.28;0.90;;;15.00;65.90;;;;;;5092327;28;20400;-82
2022/06/10 06:18:25;;;;;;;1.00;0.70;;;14.90;65.70;;;;;;5092331;28;20368;-86
2022/06/10 06:20:52;;;;;;;1.48;0.70;;;14.90;66.40;;;;;;5092724;28;20381;-88
2022/06/10 06:23:20;;;;;;;0.90;0.40;;;14.80;66.70;;;;;;5093442;28;20399;-82
2022/06/10 06:25:47;;;;;;;2.58;0.38;;;14.70;66.60;;;;;;5093045;28;20397;-90
2022/06/10 06:28:14;;;;;;;1.90;0.25;;;14.60;67.10;;;;;;5092943;28;20426;-89
2022/06/10 06:30:41;;;;;;;0.75;0.30;;;14.50;67.20;;;;;;5092804;28;20399;-91
2022/06/10 06:33:09;;;;;;;0.98;0.43;;;14.40;67.80;;;;;;5092578;28;20467;-87
2022/06/10 06:35:38;;;;;;;2.03;0.35;;;14.30;68.00;;;;;;5092084;28;20431;-88
2022/06/10 06:38:06;;;;;;;1.02;0.40;;;14.30;67.80;;;;;;5092749;28;20472;-89
2022/06/10 06:40:34;;;;;;;0.45;0.30;;;14.20;67.40;;;;;;5092396;28;20411;-84
2022/06/10 06:43:01;;;;;;;2.40;0.40;;;14.10;67.80;;;;;;5093330;28;20406;-83
2022/06/10 06:45:29;;;;;;;0.45;0.40;;;14.10;68.10;;;;;;5092304;28;20379;-90
2022/06/10 06:47:56;;;;;;;1.27;0.20;;;13.90;68.30;;;;;;5092469;28;20784;-83
2022/06/10 06:50:27;;;;;;;2.88;0.30;;;13.80;68.60;;;;;;5073509;28;20404;-80
2022/06/10 06:52:54;;;;;;;1.20;0.30;;;13.70;70.20;;;;;;5091510;28;20368;-85
2022/06/10 06:55:21;;;;;;;0.73;0.38;;;13.50;70.10;;;;;;5091575;28;20478;-78
2022/06/10 06:57:49;;;;;;;1.35;0.30;;;13.40;70.50;;;;;;5091479;28;20880;-79
2022/06/10 07:00:18;;;;;;;1.45;0.30;;;13.30;70.80;;;;;;5091565;28;20434;-80
2022/06/10 07:02:45;;;;;;;1.20;0.30;;;13.20;71.60;;;;;;5091285;28;20500;-82
2022/06/10 07:05:13;;;;;;;0.90;0.30;;;13.10;72.40;;;;;;5091467;28;20368;-82
2022/06/10 07:07:44;;;;;;;0.43;0.27;;;13.00;72.40;;;;;;5091496;28;20377;-81
2022/06/10 07:10:13;;;;;;;1.80;0.50;;;12.90;73.00;;;;;;5091413;28;20544;-81
2022/06/10 07:12:41;;;;;;;1.43;0.43;;;12.80;73.50;;;;;;5090850;28;20447;-80
2022/06/10 07:15:09;;;;;;;0.50;0.40;;;12.70;73.60;;;;;;5091245;28;20879;-80
2022/06/10 07:17:37;;;;;;;1.20;0.40;;;12.50;74.20;;;;;;5090903;28;20384;-81
2022/06/10 07:20:06;;;;;;;1.90;0.45;;;12.30;75.30;;;;;;5091252;28;20398;-81
2022/06/10 07:22:34;;;;;;;2.20;0.70;;;12.10;76.50;;;;;;5087643;28;20408;-79
2022/06/10 07:25:01;;;;;;;1.90;0.40;;;12.20;77.10;;;;;;5090694;28;20767;-81
2022/06/10 07:27:29;;;;;;;2.70;0.70;;;12.10;77.20;;;;;;5090690;28;20834;-79
2022/06/10 07:29:56;;;;;;;5.80;0.50;;;12.10;77.90;;;;;;5090568;28;20372;-81
2022/06/10 07:32:23;;;;;;;3.20;0.40;;;12.10;78.50;;;;;;5090682;28;20376;-80
2022/06/10 07:34:50;;;;;;;2.55;0.50;;;12.00;78.70;;;;;;5090548;28;20388;-79
2022/06/10 07:37:17;;;;;;;1.55;0.50;;;11.80;79.40;;;;;;5090636;28;20372;-82
2022/06/10 07:39:44;;;;;;;0.75;0.30;;;11.80;80.60;;;;;;5090651;28;20427;-83
2022/06/10 07:42:11;;;;;;;1.13;0.30;;;11.70;80.50;;;;;;5090689;28;20390;-81
2022/06/10 07:44:39;;;;;;;1.38;0.32;;;11.80;80.20;;;;;;5090482;28;20372;-81
2022/06/10 07:47:09;;;;;;;2.47;0.40;;;12.00;79.90;;;;;;5090452;28;20379;-81
2022/06/10 07:49:37;;;;;;;0.65;0.32;;;12.00;80.20;;;;;;5090711;28;20447;-82
2022/06/10 07:52:05;;;;;;;0.45;0.30;;;12.00;79.70;;;;;;5090384;28;20384;-80
2022/06/10 07:54:36;;;;;;;5.00;0.60;;;12.00;79.60;;;;;;5090317;28;20373;-81
2022/06/10 07:57:06;;;;;;;1.30;1.20;;;12.10;79.50;;;;;;5090344;28;20452;-80
2022/06/10 07:59:34;;;;;;;1.10;1.00;;;12.10;79.50;;;;;;5090322;28;20385;-81
2022/06/10 08:02:01;;;;;;;2.90;2.40;;;12.10;79.70;;;;;;5090237;28;20415;-80
2022/06/10 08:04:28;;;;;;;8.35;7.55;;;12.00;80.00;;;;;;5090115;28;20958;-81
2022/06/10 08:06:56;;;;;;;2.00;1.63;;;12.00;80.80;;;;;;5090011;28;20468;-82
2022/06/10 08:09:23;;;;;;;4.93;4.53;;;11.80;81.30;;;;;;5089939;28;20365;-80
2022/06/10 08:11:52;;;;;;;1.30;1.20;;;11.70;82.00;;;;;;5089950;28;20379;-79
2022/06/10 08:14:20;;;;;;;2.33;0.90;;;11.60;82.80;;;;;;5089864;28;20384;-78
2022/06/10 08:16:47;;;;;;;3.78;3.00;;;11.60;83.50;;;;;;5094540;28;20453;-83
2022/06/10 08:19:15;;;;;;;6.68;5.47;;;11.40;84.50;;;;;;5090412;28;20376;-81
2022/06/10 08:24:30;;;;;;;1.42;0.98;;;11.30;85.60;;;;;;5090247;28;20359;-82
2022/06/10 08:26:57;;;;;;;1.00;0.90;;;11.30;86.00;;;;;;5091293;28;20412;-80
2022/06/10 08:29:26;;;;;;;1.50;1.30;;;11.30;86.70;;;;;;5089669;28;20373;-81
2022/06/10 08:31:53;;;;;;;2.20;1.00;;;11.20;86.90;;;;;;5089671;28;20409;-83
2022/06/10 08:34:20;;;;;;;0.90;0.90;;;11.20;87.60;;;;;;5089523;28;20390;-82
2022/06/10 08:36:47;;;;;;;0.68;0.68;;;11.20;87.90;;;;;;5088084;28;20496;-84
2022/06/10 08:39:15;;;;;;;1.27;0.70;;;11.20;87.50;;;;;;5089557;28;20372;-83
2022/06/10 08:42:03;;;;;;;0.63;0.60;;;11.30;86.90;;;;;;5089553;28;20404;-82
2022/06/10 08:44:36;;;;;;;11.52;9.63;;;11.30;86.80;;;;;;5089736;28;20411;-80
2022/06/10 08:47:19;;;;;;;15.50;11.88;;;11.40;86.30;;;;;;5089866;28;20386;-81
2022/06/10 08:49:55;;;;;;;38.50;27.83;;;11.40;86.50;;;;;;5089576;28;20373;-82
2022/06/10 08:52:44;;;;;;;35.47;26.20;;;11.30;87.40;;;;;;5088964;28;20443;-80
2022/06/10 08:55:32;;;;;;;53.78;37.78;;;11.10;88.70;;;;;;5089421;28;20369;-80
2022/06/10 08:58:10;;;;;;;57.23;38.23;;;11.00;88.80;;;;;;5089368;28;20376;-81
2022/06/10 09:00:40;;;;;;;6.80;5.40;;;11.00;88.10;;;;;;5089117;28;20363;-81
2022/06/10 09:03:40;;;;;;;12.93;7.65;;;11.00;88.10;;;;;;5089443;28;20767;-83
2022/06/10 09:06:12;;;;;;;203.05;109.53;;;10.90;88.30;;;;;;5007297;28;20372;-83
2022/06/10 09:08:43;;;;;;;82.47;49.88;;;10.80;89.30;;;;;;5007350;28;20375;-83
2022/06/10 09:11:31;;;;;;;25.50;18.10;;;10.70;90.30;;;;;;5007693;28;20371;-81
2022/06/10 09:14:02;;;;;;;12.07;9.40;;;10.50;90.80;;;;;;5006988;28;20386;-80
2022/06/10 09:16:32;;;;;;;6.28;5.43;;;10.30;91.40;;;;;;5006981;28;20875;-83
2022/06/10 09:19:04;;;;;;;5.45;4.18;;;10.20;92.40;;;;;;5007692;28;20379;-83
2022/06/10 09:21:57;;;;;;;1.95;1.45;;;10.20;92.70;;;;;;5007525;28;20387;-81
2022/06/10 09:24:36;;;;;;;16.45;12.65;;;10.20;93.20;;;;;;5007091;28;20418;-83
2022/06/10 09:27:17;;;;;;;19.27;14.15;;;10.10;93.40;;;;;;5006818;28;20466;-84
2022/06/10 09:29:44;;;;;;;6.22;3.00;;;9.90;94.30;;;;;;5006823;28;20444;-82
2022/06/10 09:32:21;;;;;;;7.63;5.03;;;9.90;94.70;;;;;;5006887;28;20467;-82
2022/06/10 09:35:18;;;;;;;35.38;29.83;;;9.70;95.40;;;;;;5006497;28;20399;-84
2022/06/10 09:38:23;;;;;;;7.60;6.85;;;9.50;96.30;;;;;;5006647;28;20546;-82
2022/06/10 09:41:08;;;;;;;3.88;3.15;;;9.70;96.30;;;;;;5007364;28;20809;-81
2022/06/10 09:43:44;;;;;;;3.15;2.50;;;9.70;96.50;;;;;;5068173;28;20459;-82
2022/06/10 09:46:28;;;;;;;6.47;5.63;;;9.80;96.30;;;;;;5088751;28;20437;-84
2022/06/10 09:49:13;;;;;;;4.88;3.20;;;9.90;96.00;;;;;;5088585;28;20364;-82
2022/06/10 09:52:02;;;;;;;4.93;3.80;;;9.90;95.70;;;;;;5088438;28;20363;-84
2022/06/10 09:54:44;;;;;;;7.03;4.30;;;9.90;95.50;;;;;;5088682;28;20717;-83
2022/06/10 09:57:39;;;;;;;4.93;3.80;;;9.70;95.90;;;;;;5088457;28;20525;-84
2022/06/10 10:00:50;;;;;;;7.47;5.80;;;9.50;96.40;;;;;;5089429;28;20357;-83
2022/06/10 10:03:54;;;;;;;6.72;5.40;;;9.30;98.00;;;;;;5007201;28;20415;-82
2022/06/10 10:06:33;;;;;;;7.43;5.60;;;9.20;98.40;;;;;;5006931;28;20395;-84
2022/06/10 10:09:25;;;;;;;7.32;4.60;;;9.00;99.10;;;;;;5006588;28;20383;-84
2022/06/10 10:12:14;;;;;;;5.63;4.47;;;8.90;99.70;;;;;;4990177;28;20879;-84
2022/06/10 10:14:53;;;;;;;7.05;3.90;;;8.70;99.90;;;;;;5006447;28;20383;-84
2022/06/10 10:17:29;;;;;;;14.02;10.07;;;8.60;99.90;;;;;;5006389;28;20434;-84
2022/06/10 10:19:59;;;;;;;106.33;91.73;;;8.50;99.90;;;;;;5006405;28;20380;-81
2022/06/10 10:22:42;;;;;;;47.67;42.47;;;8.60;99.90;;;;;;5006066;28;20394;-85
2022/06/10 10:25:16;;;;;;;30.67;25.08;;;8.60;99.90;;;;;;4989875;28;20420;-79
2022/06/10 10:27:45;;;;;;;34.67;30.25;;;8.50;99.90;;;;;;4990117;28;20384;-82
2022/06/10 10:30:25;;;;;;;30.13;24.58;;;8.50;99.90;;;;;;5005983;28;20961;-79
2022/06/10 10:33:01;;;;;;;30.30;23.10;;;8.40;99.90;;;;;;5006557;28;20383;-79
2022/06/10 10:35:41;;;;;;;24.92;21.13;;;8.40;99.90;;;;;;5006234;28;20461;-83
2022/06/10 10:38:12;;;;;;;18.55;14.68;;;8.30;99.90;;;;;;5006795;28;20395;-83
2022/06/10 10:40:42;;;;;;;21.25;17.40;;;8.20;99.90;;;;;;5067149;28;20368;-80
2022/06/10 10:43:31;;;;;;;14.40;11.87;;;8.20;99.90;;;;;;5088079;28;20449;-82
2022/06/10 10:46:33;;;;;;;10.75;7.80;;;8.20;99.90;;;;;;5088034;28;20448;-83
2022/06/10 10:49:04;;;;;;;8.82;6.13;;;8.20;99.90;;;;;;5090667;28;20415;-83
2022/06/10 10:51:40;;;;;;;6.40;5.63;;;8.10;99.90;;;;;;5091862;28;20364;-81
2022/06/10 10:54:19;;;;;;;6.90;5.50;;;8.00;99.90;;;;;;5091565;28;20353;-82
2022/06/10 10:56:51;;;;;;;8.23;6.10;;;7.90;99.90;;;;;;5091444;28;20402;-80
2022/06/10 10:59:32;;;;;;;9.27;8.18;;;7.90;99.90;;;;;;5091452;28;20384;-81
2022/06/10 11:02:00;;;;;;;9.57;6.85;;;7.90;99.90;;;;;;5091463;28;20368;-84
2022/06/10 11:04:36;;;;;;;8.63;7.63;;;7.80;99.90;;;;;;5091247;28;20410;-84
2022/06/10 11:07:11;;;;;;;14.98;10.93;;;7.70;99.90;;;;;;5091283;28;20372;-83
2022/06/10 11:09:51;;;;;;;13.50;9.27;;;7.60;99.90;;;;;;5090012;28;20376;-82
2022/06/10 11:12:23;;;;;;;12.70;9.25;;;7.60;99.90;;;;;;5091405;28;20392;-84
2022/06/10 11:14:59;;;;;;;11.27;9.10;;;7.60;99.90;;;;;;5091144;28;20368;-82
2022/06/10 11:17:27;;;;;;;10.80;8.30;;;7.60;99.90;;;;;;5090964;28;20395;-81
2022/06/10 11:20:19;;;;;;;10.07;7.90;;;7.60;99.90;;;;;;5091279;28;20410;-82
2022/06/10 11:22:46;;;;;;;9.73;6.75;;;7.70;99.90;;;;;;5089646;28;20380;-83
2022/06/10 11:25:16;;;;;;;9.70;6.80;;;7.60;99.90;;;;;;5087393;28;20381;-84
2022/06/10 11:27:49;;;;;;;9.07;6.45;;;7.50;99.90;;;;;;5091044;28;20380;-82
2022/06/10 11:30:23;;;;;;;6.85;4.95;;;7.50;99.90;;;;;;5089608;28;20460;-81
2022/06/10 11:32:51;;;;;;;6.38;4.93;;;7.40;99.90;;;;;;5089562;28;20797;-82
2022/06/10 11:35:40;;;;;;;7.33;5.50;;;7.30;99.90;;;;;;5090698;28;20396;-84
2022/06/10 11:38:23;;;;;;;5.80;5.20;;;7.30;99.90;;;;;;5090664;28;20429;-84
2022/06/10 11:41:11;;;;;;;7.67;5.17;;;7.20;99.90;;;;;;5090687;28;20397;-80
2022/06/10 11:43:43;;;;;;;6.87;5.50;;;7.20;99.90;;;;;;5090327;28;20467;-80
2022/06/10 11:46:19;;;;;;;6.35;5.15;;;7.20;99.90;;;;;;5090938;28;20384;-84
2022/06/10 11:49:11;;;;;;;6.25;4.65;;;7.20;99.90;;;;;;5090540;28;20376;-83
2022/06/10 11:51:47;;;;;;;4.93;4.30;;;7.20;99.90;;;;;;5090455;28;20361;-81
2022/06/10 11:54:26;;;;;;;5.68;4.45;;;7.10;99.90;;;;;;5090226;28;20372;-83
2022/06/10 12:00:12;;;;;;;7.80;6.20;;;7.00;99.90;;;;;;5090773;28;20461;-83
2022/06/10 12:02:48;;;;;;;8.60;6.87;;;6.90;99.90;;;;;;5090429;28;20415;-82
2022/06/10 12:05:15;;;;;;;7.05;6.13;;;7.00;99.90;;;;;;5090359;28;20384;-81
2022/06/10 12:07:58;;;;;;;6.77;5.20;;;6.90;99.90;;;;;;5090215;28;20380;-83
2022/06/10 12:10:27;;;;;;;6.40;5.20;;;6.90;99.90;;;;;;5090124;28;20445;-83
2022/06/10 12:12:57;;;;;;;5.85;5.07;;;6.90;99.90;;;;;;5090202;28;20400;-80
2022/06/10 12:15:30;;;;;;;5.45;4.60;;;6.90;99.90;;;;;;5090172;28;20394;-80
2022/06/10 12:18:03;;;;;;;5.35;4.65;;;6.90;99.90;;;;;;5089783;28;20460;-82
2022/06/10 12:20:51;;;;;;;5.57;4.50;;;6.90;99.90;;;;;;5090467;28;20371;-83
2022/06/10 12:23:31;;;;;;;5.60;4.20;;;6.90;99.90;;;;;;5089848;28;20798;-84
2022/06/10 12:26:23;;;;;;;6.05;4.40;;;6.90;99.90;;;;;;5071917;28;20372;-84
2022/06/10 12:28:55;;;;;;;5.32;4.38;;;6.90;99.90;;;;;;5090250;28;20694;-85
2022/06/10 12:31:47;;;;;;;4.75;4.20;;;6.90;99.90;;;;;;5090244;28;20369;-84
2022/06/10 12:34:33;;;;;;;6.40;4.25;;;6.90;99.90;;;;;;5090137;28;20438;-84
2022/06/10 12:37:05;;;;;;;4.63;4.07;;;6.80;99.90;;;;;;5088181;28;20779;-81
2022/06/10 12:39:49;;;;;;;5.10;4.22;;;6.80;99.90;;;;;;5089780;28;20713;-83
2022/06/10 12:42:16;;;;;;;7.07;4.50;;;6.70;99.90;;;;;;5088163;28;20430;-82
2022/06/10 12:44:54;;;;;;;4.80;4.25;;;6.70;99.90;;;;;;5089419;28;20451;-83
2022/06/10 12:47:34;;;;;;;5.47;4.25;;;6.60;99.90;;;;;;5089364;28;20371;-83
2022/06/10 12:50:16;;;;;;;6.18;4.43;;;6.60;99.90;;;;;;5089423;28;20372;-84
2022/06/10 12:53:11;;;;;;;5.32;4.15;;;6.60;99.90;;;;;;5089246;28;20879;-83
2022/06/10 12:55:56;;;;;;;5.25;4.20;;;6.50;99.90;;;;;;5089535;28;20396;-81
2022/06/10 12:58:38;;;;;;;8.23;4.60;;;6.50;99.90;;;;;;5089054;28;20456;-79
2022/06/10 13:01:19;;;;;;;5.20;4.30;;;6.50;99.90;;;;;;5089070;28;20400;-83
2022/06/10 13:03:49;;;;;;;6.38;4.70;;;6.50;99.90;;;;;;5089321;28;20353;-82
2022/06/10 13:06:43;;;;;;;6.47;5.10;;;6.60;99.90;;;;;;5089017;28;20931;-84
2022/06/10 13:09:15;;;;;;;6.63;5.67;;;6.50;99.90;;;;;;5089013;28;20372;-82
2022/06/10 13:11:56;;;;;;;7.80;7.03;;;6.50;99.90;;;;;;5088950;28;20422;-83
2022/06/10 13:14:23;;;;;;;8.30;7.50;;;6.50;99.90;;;;;;5088742;28;20391;-81
2022/06/10 13:17:00;;;;;;;9.60;8.20;;;6.40;99.90;;;;;;5088650;28;20426;-83
2022/06/10 13:20:07;;;;;;;8.98;8.07;;;6.40;99.90;;;;;;5089256;28;20456;-81
2022/06/10 13:22:39;;;;;;;9.13;8.23;;;6.30;99.90;;;;;;5087630;28;20461;-82
2022/06/10 13:25:09;;;;;;;9.27;8.25;;;6.30;99.90;;;;;;5089028;28;20361;-84
2022/06/10 13:27:47;;;;;;;8.20;7.40;;;6.20;99.90;;;;;;5089251;28;20384;-83
2022/06/10 13:30:24;;;;;;;12.18;10.90;;;6.20;99.90;;;;;;5088750;28;20480;-82
2022/06/10 13:33:02;;;;;;;12.55;11.02;;;6.10;99.90;;;;;;5089152;28;20367;-82
2022/06/10 13:35:32;;;;;;;15.43;14.00;;;6.10;99.90;;;;;;5088853;28;20499;-79
2022/06/10 13:38:11;;;;;;;13.80;12.53;;;6.10;99.90;;;;;;5070694;28;20827;-82
2022/06/10 13:40:40;;;;;;;12.70;11.43;;;6.10;99.90;;;;;;5088888;28;20380;-82
2022/06/10 13:43:17;;;;;;;10.50;9.40;;;6.00;99.90;;;;;;5088619;28;20397;-83
2022/06/10 13:45:47;;;;;;;8.73;7.30;;;6.00;99.90;;;;;;5088479;28;20367;-82